M I D A S
Marine Information and Data Acquisition System
Tripno 1183 of the Zeeleeuw from 2006-12-22 08:53:50 to 2006-12-22 12:16:46
Back to CruiseResearch ActivitiesStationsMapUnderway DataData graphs

EquipmentUnitsComment
TimeDGPSUTC
LatitudeDGPSDM.mWGS84
LongitudeDGPSDM.mWGS84
HeadingGyrodeg 
SOGDGPSknotsSpeed over ground
COGDGPSdegCourse over ground
DepthEcho soundermeters200 kHz
Missing or incorrect values are displayed as -999
Navigation data collected by the RV Zeeleeuw from 2006-12-22 07:35:38 to 2006-12-22 12:28:48
                                                                                    Next 1000 lines
Time Latitude Longitude Heading SOG COG Depth
2006-12-22 07:35:48 51°13.599 2°56.09 112 0.9 287 6.1
2006-12-22 07:35:54 51°13.6 2°56.088 111.7 1 292 6.1
2006-12-22 07:35:58 51°13.6 2°56.086 111.7 1.1 290 6.4
2006-12-22 07:36:02 51°13.601 2°56.084 111.7 1.4 293 6.3
2006-12-22 07:36:08 51°13.602 2°56.079 112 1.7 291 6.6
2006-12-22 07:36:13 51°13.602 2°56.075 112.4 2 292 4.6
2006-12-22 07:36:18 51°13.604 2°56.07 112.7 2.3 292 4.6
2006-12-22 07:36:24 51°13.605 2°56.064 112.9 2.6 292 -999
2006-12-22 07:36:29 51°13.607 2°56.058 112.6 2.9 290 -999
2006-12-22 07:36:33 51°13.608 2°56.052 112.4 3.2 291 -999
2006-12-22 07:36:39 51°13.61 2°56.044 112.5 3.4 290 -999
2006-12-22 07:36:44 51°13.611 2°56.036 113.2 3.7 290 -999
2006-12-22 07:36:49 51°13.613 2°56.028 113.8 3.9 290 -999
2006-12-22 07:36:54 51°13.615 2°56.019 114.6 4.1 290 -999
2006-12-22 07:36:59 51°13.617 2°56.01 115.4 4.2 292 -999
2006-12-22 07:37:04 51°13.62 2°56.001 117 4.4 292 -999
2006-12-22 07:37:08 51°13.621 2°55.994 118.6 4.6 294 -999
2006-12-22 07:37:12 51°13.624 2°55.986 120.3 4.8 296 17.3
2006-12-22 07:37:18 51°13.628 2°55.974 121.2 5 298 -999
2006-12-22 07:37:24 51°13.632 2°55.962 123.1 5.2 299 -999
2006-12-22 07:37:29 51°13.636 2°55.952 124.7 5.3 301 -999
2006-12-22 07:37:34 51°13.64 2°55.942 126.5 5.5 303 -999
2006-12-22 07:37:38 51°13.643 2°55.934 127.7 5.6 303 -999
2006-12-22 07:37:43 51°13.648 2°55.924 128.7 5.7 305 -999
2006-12-22 07:37:49 51°13.653 2°55.911 130.2 5.8 306 -999
2006-12-22 07:37:53 51°13.657 2°55.903 131.3 5.8 308 -999
2006-12-22 07:37:58 51°13.662 2°55.893 132.5 5.9 309 -999
2006-12-22 07:38:03 51°13.668 2°55.883 133 6 310 -999
2006-12-22 07:38:08 51°13.673 2°55.872 133.2 6.1 310 -999
2006-12-22 07:38:13 51°13.679 2°55.862 133.1 6 310 -999
2006-12-22 07:38:19 51°13.685 2°55.85 132.1 5.8 310 -999
2006-12-22 07:38:24 51°13.69 2°55.841 131.1 5.8 309 -999
2006-12-22 07:38:28 51°13.694 2°55.833 129.6 5.7 308 -999
2006-12-22 07:38:33 51°13.699 2°55.822 127.6 5.7 306 -999
2006-12-22 07:38:39 51°13.704 2°55.81 125.3 5.7 304 -999
2006-12-22 07:38:43 51°13.707 2°55.802 123.3 5.6 301 -999
2006-12-22 07:38:48 51°13.711 2°55.791 120.6 5.4 299 -999
2006-12-22 07:38:53 51°13.714 2°55.781 117.3 5.2 296 -999
2006-12-22 07:38:59 51°13.718 2°55.769 114.6 4.9 295 -999
2006-12-22 07:39:03 51°13.72 2°55.761 112.6 4.7 292 4.7
2006-12-22 07:39:08 51°13.722 2°55.752 111 4.3 290 4.8
2006-12-22 07:39:13 51°13.723 2°55.743 109.3 4.1 288 4.6
2006-12-22 07:39:18 51°13.725 2°55.735 106.9 4 286 -999
2006-12-22 07:39:23 51°13.726 2°55.727 104.1 3.7 284 8.9
2006-12-22 07:39:28 51°13.727 2°55.719 101.9 3.5 282 5
2006-12-22 07:39:33 51°13.728 2°55.712 100.1 3.2 281 9.7
2006-12-22 07:39:38 51°13.729 2°55.706 98.5 2.8 283 9.8
2006-12-22 07:39:43 51°13.729 2°55.702 96.5 1.9 283 4.8
2006-12-22 07:39:48 51°13.73 2°55.701 93.8 0.7 318 4.8
2006-12-22 07:39:53 51°13.731 2°55.701 89.2 0.7 28 4.6
2006-12-22 07:39:58 51°13.732 2°55.703 80.7 1.4 52 4.6
2006-12-22 07:40:03 51°13.733 2°55.706 72.2 1.7 50 9.7
2006-12-22 07:40:08 51°13.735 2°55.709 65.8 1.6 46 -999
2006-12-22 07:40:13 51°13.736 2°55.711 58.7 1.6 42 9.3
2006-12-22 07:40:18 51°13.738 2°55.713 53.3 1 37 -999
2006-12-22 07:40:23 51°13.738 2°55.713 50.4 0.5 36 9.3
2006-12-22 07:40:28 51°13.738 2°55.713 47.2 0.2 291 9.2
2006-12-22 07:40:33 51°13.738 2°55.712 44.8 0.6 233 9.2
2006-12-22 07:40:38 51°13.736 2°55.71 42.4 1.1 225 -999
2006-12-22 07:40:43 51°13.735 2°55.707 40.3 1.6 223 -999
2006-12-22 07:40:48 51°13.732 2°55.705 39.1 2 220 4.7
2006-12-22 07:40:53 51°13.73 2°55.702 37.3 2 220 -999
2006-12-22 07:40:59 51°13.728 2°55.699 35.5 1.8 219 -999
2006-12-22 07:41:04 51°13.727 2°55.697 34.3 1.4 221 -999
2006-12-22 07:41:08 51°13.726 2°55.696 32.4 0.9 225 -999
2006-12-22 07:41:13 51°13.726 2°55.695 29.6 0.2 308 -999
2006-12-22 07:41:18 51°13.727 2°55.695 25.4 0.9 3 -999
2006-12-22 07:41:24 51°13.73 2°55.696 20.9 1.6 7 -999
2006-12-22 07:41:29 51°13.733 2°55.696 12.3 2.3 2 -999
2006-12-22 07:41:33 51°13.737 2°55.695 5.6 3.1 355 -999
2006-12-22 07:41:38 51°13.742 2°55.694 357.4 3.4 350 4.9
2006-12-22 07:41:43 51°13.747 2°55.691 352.2 3.8 344 4.9
2006-12-22 07:41:48 51°13.752 2°55.688 348.7 4.3 342 9.6
2006-12-22 07:41:53 51°13.759 2°55.685 345.6 4.8 338 9.8
2006-12-22 07:41:58 51°13.765 2°55.68 343.1 5.1 339 9.3
2006-12-22 07:42:03 51°13.772 2°55.676 341.7 5.5 337 9.4
2006-12-22 07:42:09 51°13.782 2°55.67 340.8 6.1 338 -999
2006-12-22 07:42:13 51°13.788 2°55.665 340.8 6.4 337 -999
2006-12-22 07:42:18 51°13.797 2°55.66 340.8 6.8 338 -999
2006-12-22 07:42:23 51°13.806 2°55.653 340.6 7.1 336 -999
2006-12-22 07:42:28 51°13.815 2°55.647 340.2 7.3 336 9.2
2006-12-22 07:42:33 51°13.825 2°55.64 340.2 7.7 336 -999
2006-12-22 07:42:38 51°13.835 2°55.632 339.9 7.9 336 9
2006-12-22 07:42:43 51°13.845 2°55.625 339.4 8 335 9.2
2006-12-22 07:42:48 51°13.855 2°55.617 338.9 8.3 335 9
2006-12-22 07:42:53 51°13.865 2°55.609 338.9 8.4 335 9
2006-12-22 07:42:58 51°13.876 2°55.601 339.4 8.5 335 9.1
2006-12-22 07:43:03 51°13.887 2°55.593 339.4 8.6 334 9.4
2006-12-22 07:43:08 51°13.898 2°55.585 339.1 8.8 335 -999
2006-12-22 07:43:13 51°13.909 2°55.576 339.1 8.9 335 -999
2006-12-22 07:43:18 51°13.921 2°55.568 339.5 9 335 9.1
2006-12-22 07:43:23 51°13.932 2°55.56 339.9 9 336 9.1
2006-12-22 07:43:28 51°13.944 2°55.552 340.1 9.1 336 -999
2006-12-22 07:43:33 51°13.956 2°55.544 339.8 9.2 335 -999
2006-12-22 07:43:38 51°13.967 2°55.535 340.1 9.2 336 -999
2006-12-22 07:43:43 51°13.979 2°55.527 340.4 9.2 336 -999
2006-12-22 07:43:48 51°13.991 2°55.519 340.2 9 336 -999
2006-12-22 07:43:53 51°14.002 2°55.511 339.8 8.8 336 -999
2006-12-22 07:43:58 51°14.012 2°55.503 339.8 8.6 336 -999
2006-12-22 07:44:04 51°14.025 2°55.494 340.4 8.3 336 -999
2006-12-22 07:44:09 51°14.035 2°55.487 340.4 8.2 336 -999
2006-12-22 07:44:13 51°14.043 2°55.481 340.5 8.1 336 -999
2006-12-22 07:44:18 51°14.054 2°55.474 340.4 8.2 335 -999
2006-12-22 07:44:23 51°14.064 2°55.466 340.4 8.2 336 -999
2006-12-22 07:44:29 51°14.076 2°55.457 340.3 8.3 335 -999
2006-12-22 07:44:33 51°14.085 2°55.451 339.6 8.3 335 -999
2006-12-22 07:44:38 51°14.095 2°55.443 339.2 8.4 334 -999
2006-12-22 07:44:43 51°14.105 2°55.435 338.9 8.4 334 -999
2006-12-22 07:44:48 51°14.116 2°55.427 338.8 8.4 334 -999
2006-12-22 07:44:53 51°14.127 2°55.418 338.6 8.4 334 -999
2006-12-22 07:44:58 51°14.137 2°55.41 338.2 8.4 333 -999
2006-12-22 07:45:04 51°14.15 2°55.4 337.1 8.5 332 -999
2006-12-22 07:45:08 51°14.158 2°55.393 336.4 8.5 332 10.3
2006-12-22 07:45:13 51°14.169 2°55.384 335.8 8.5 331 4.9
2006-12-22 07:45:18 51°14.179 2°55.374 334.9 8.5 329 10.1
2006-12-22 07:45:24 51°14.191 2°55.362 333.4 8.5 327 -999
2006-12-22 07:45:28 51°14.198 2°55.353 331.2 8.5 326 -999
2006-12-22 07:45:33 51°14.208 2°55.342 329.7 8.5 325 -999
2006-12-22 07:45:39 51°14.219 2°55.328 328.5 8.6 323 -999
2006-12-22 07:45:44 51°14.229 2°55.316 327 8.6 321 -999
2006-12-22 07:45:49 51°14.238 2°55.304 324.8 8.6 319 -999
2006-12-22 07:45:53 51°14.244 2°55.294 323.1 8.6 317 -999
2006-12-22 07:45:59 51°14.254 2°55.278 320.7 8.6 315 -999
2006-12-22 07:46:03 51°14.261 2°55.266 318.6 8.6 313 9.9
2006-12-22 07:46:09 51°14.271 2°55.249 317.2 8.8 312 -999
2006-12-22 07:46:13 51°14.277 2°55.237 316.3 9 311 -999
2006-12-22 07:46:18 51°14.285 2°55.221 315 9.3 310 -999
2006-12-22 07:46:24 51°14.295 2°55.201 313.5 9.5 308 -999
2006-12-22 07:46:29 51°14.304 2°55.184 313.1 9.7 308 -999
2006-12-22 07:46:33 51°14.31 2°55.17 312.2 9.9 307 10.4
2006-12-22 07:46:38 51°14.318 2°55.152 311.3 10 306 10.2
2006-12-22 07:46:43 51°14.326 2°55.134 310.8 10.2 306 9.8
2006-12-22 07:46:48 51°14.335 2°55.116 310.3 10.3 305 9.8
2006-12-22 07:46:53 51°14.343 2°55.097 309.8 10.4 305 9.5
2006-12-22 07:46:58 51°14.351 2°55.077 309.4 10.5 305 9.5
2006-12-22 07:47:03 51°14.36 2°55.058 309.6 10.7 305 9.7
2006-12-22 07:47:07 51°14.366 2°55.042 309.4 10.8 302 9.1
2006-12-22 07:47:13 51°14.375 2°55.017 307.9 11 300 8.8
2006-12-22 07:47:18 51°14.382 2°54.995 306 11.2 298 9.4
2006-12-22 07:47:23 51°14.389 2°54.972 304.2 11.4 296 9.1
2006-12-22 07:47:28 51°14.395 2°54.949 302.8 11.6 293 8.9
2006-12-22 07:47:33 51°14.401 2°54.924 300.4 11.8 290 9
2006-12-22 07:47:38 51°14.406 2°54.899 297.2 11.9 288 9.1
2006-12-22 07:47:43 51°14.411 2°54.874 295.4 12.1 286 8.9
2006-12-22 07:47:48 51°14.415 2°54.848 294.2 12.2 285 9.2
2006-12-22 07:47:53 51°14.419 2°54.821 292.3 12.3 283 8.9
2006-12-22 07:47:58 51°14.422 2°54.794 290.2 12.5 281 9.3
2006-12-22 07:48:03 51°14.425 2°54.767 288.7 12.6 280 9.2
2006-12-22 07:48:08 51°14.427 2°54.739 287.4 12.7 278 9.5
2006-12-22 07:48:13 51°14.43 2°54.711 286.3 12.8 278 9.7
2006-12-22 07:48:18 51°14.432 2°54.683 285.2 12.9 277 9.2
2006-12-22 07:48:23 51°14.433 2°54.654 284.2 13.1 274 9.2
2006-12-22 07:48:28 51°14.435 2°54.625 282.5 13.2 274 9.7
2006-12-22 07:48:33 51°14.435 2°54.595 280.6 13.3 273 9.4
2006-12-22 07:48:38 51°14.436 2°54.566 280.1 13.4 271 9
2006-12-22 07:48:43 51°14.435 2°54.536 278.4 13.5 269 9
2006-12-22 07:48:48 51°14.435 2°54.506 276.6 13.6 267 9
2006-12-22 07:48:53 51°14.432 2°54.476 274.5 13.8 262 9.7
2006-12-22 07:48:58 51°14.428 2°54.446 270.9 13.8 258 8.9
2006-12-22 07:49:03 51°14.422 2°54.417 266.2 13.8 253 8.9
2006-12-22 07:49:08 51°14.415 2°54.388 260.8 13.8 249 8.3
2006-12-22 07:49:13 51°14.407 2°54.36 255.8 13.8 245 8.3
2006-12-22 07:49:18 51°14.399 2°54.333 251.8 13.8 244 8
2006-12-22 07:49:23 51°14.39 2°54.306 249.4 13.8 242 8
2006-12-22 07:49:28 51°14.38 2°54.279 247.6 13.9 241 8
2006-12-22 07:49:33 51°14.37 2°54.253 245.8 13.9 239 8
2006-12-22 07:49:38 51°14.36 2°54.227 244.4 13.9 238 7.9
2006-12-22 07:49:43 51°14.349 2°54.2 242.8 14 238 7.8
2006-12-22 07:49:48 51°14.339 2°54.174 242.4 14 237 7.8
2006-12-22 07:49:53 51°14.328 2°54.148 241.5 14 237 7.8
2006-12-22 07:49:58 51°14.318 2°54.122 241 14 238 7.8
2006-12-22 07:50:03 51°14.308 2°54.096 241 14.1 238 7.8
2006-12-22 07:50:08 51°14.298 2°54.068 241.4 14.1 242 7.7
2006-12-22 07:50:13 51°14.29 2°54.04 243.8 14.1 244 7.8
2006-12-22 07:50:18 51°14.282 2°54.012 246.6 14.1 246 7.7
2006-12-22 07:50:23 51°14.274 2°53.983 249.4 14 248 7.7
2006-12-22 07:50:28 51°14.268 2°53.954 251.5 14.1 250 7.7
2006-12-22 07:50:33 51°14.261 2°53.925 253.5 14.1 251 7.8
2006-12-22 07:50:38 51°14.255 2°53.895 255.4 14.1 252 7.8
2006-12-22 07:50:43 51°14.249 2°53.865 256.3 14.1 252 7.8
2006-12-22 07:50:48 51°14.243 2°53.835 257.2 14.2 253 7.8
2006-12-22 07:50:53 51°14.237 2°53.805 257.7 14.2 252 7.8
2006-12-22 07:50:58 51°14.231 2°53.775 258 14.2 252 7.9
2006-12-22 07:51:03 51°14.225 2°53.745 257.9 14.3 251 7.9
2006-12-22 07:51:08 51°14.218 2°53.716 257.3 14.3 250 8
2006-12-22 07:51:13 51°14.21 2°53.687 255.9 14.3 247 7.9
2006-12-22 07:51:18 51°14.201 2°53.658 253.3 14.4 245 8
2006-12-22 07:51:23 51°14.193 2°53.629 251.3 14.4 244 8
2006-12-22 07:51:28 51°14.183 2°53.601 249.3 14.4 243 8
2006-12-22 07:51:33 51°14.174 2°53.572 248.2 14.4 243 8.1
2006-12-22 07:51:38 51°14.165 2°53.544 247.3 14.4 242 8.1
2006-12-22 07:51:43 51°14.155 2°53.516 246.7 14.4 242 8.1
2006-12-22 07:51:48 51°14.146 2°53.487 246.7 14.5 244 8.2
2006-12-22 07:51:53 51°14.137 2°53.459 247.1 14.5 243 8.2
2006-12-22 07:51:58 51°14.129 2°53.429 247.7 14.6 246 8.2
2006-12-22 07:52:03 51°14.12 2°53.4 249.1 14.6 245 8.3
2006-12-22 07:52:08 51°14.112 2°53.37 249.8 14.6 246 8.3
2006-12-22 07:52:13 51°14.104 2°53.341 250.7 14.6 247 8.3
2006-12-22 07:52:18 51°14.097 2°53.311 251.8 14.6 248 8.3
2006-12-22 07:52:23 51°14.09 2°53.28 253.1 14.7 249 8.3
2006-12-22 07:52:28 51°14.083 2°53.25 254.2 14.6 250 8.4
2006-12-22 07:52:33 51°14.076 2°53.22 255.3 14.6 249 8.4
2006-12-22 07:52:38 51°14.069 2°53.189 255.3 14.6 249 8.6
2006-12-22 07:52:43 51°14.061 2°53.159 254.8 14.7 248 8.5
2006-12-22 07:52:48 51°14.052 2°53.13 253.3 14.7 246 8.6
2006-12-22 07:52:53 51°14.044 2°53.1 252.4 14.8 246 8.6
2006-12-22 07:52:58 51°14.035 2°53.071 251.1 14.8 244 8.7
2006-12-22 07:53:03 51°14.026 2°53.041 250.3 14.9 245 8.7
2006-12-22 07:53:08 51°14.017 2°53.011 249.8 14.8 244 8.8
2006-12-22 07:53:13 51°14.009 2°52.981 249.8 14.8 245 8.9
2006-12-22 07:53:18 51°14 2°52.951 249.8 14.9 246 8.9
2006-12-22 07:53:23 51°13.992 2°52.922 250.4 14.9 246 8.9
2006-12-22 07:53:28 51°13.984 2°52.891 251.1 14.9 247 8.9
2006-12-22 07:53:33 51°13.975 2°52.861 251.5 14.9 246 8.9
2006-12-22 07:53:38 51°13.968 2°52.83 252 14.9 248 8.9
2006-12-22 07:53:43 51°13.959 2°52.8 252.5 15 247 9
2006-12-22 07:53:47 51°13.953 2°52.776 252.8 14.9 247 9
2006-12-22 07:53:53 51°13.943 2°52.74 252.8 14.9 246 9.1
2006-12-22 07:53:58 51°13.934 2°52.71 252.2 14.9 246 9
2006-12-22 07:54:03 51°13.926 2°52.68 251.3 15 245 9.1
2006-12-22 07:54:08 51°13.917 2°52.649 251.3 15 246 9
2006-12-22 07:54:13 51°13.908 2°52.62 250.6 15 244 9.1
2006-12-22 07:54:18 51°13.899 2°52.59 250.7 15 245 9.1
2006-12-22 07:54:23 51°13.89 2°52.56 250.1 15 245 9.1
2006-12-22 07:54:28 51°13.881 2°52.53 250 15 243 9.2
2006-12-22 07:54:33 51°13.872 2°52.5 249.6 15 245 9.3
2006-12-22 07:54:38 51°13.863 2°52.47 249.8 15.1 244 9.2
2006-12-22 07:54:43 51°13.854 2°52.44 249.7 15.1 245 9.2
2006-12-22 07:54:48 51°13.845 2°52.41 250.1 15 244 9.2
2006-12-22 07:54:53 51°13.836 2°52.38 249.8 15 245 9.2
2006-12-22 07:54:58 51°13.827 2°52.35 250.1 14.9 245 9.3
2006-12-22 07:55:03 51°13.818 2°52.321 250.3 14.8 244 9.3
2006-12-22 07:55:08 51°13.809 2°52.291 250.1 14.9 245 9.2
2006-12-22 07:55:13 51°13.8 2°52.261 249.6 15 244 9.2
2006-12-22 07:55:18 51°13.791 2°52.231 249.8 14.9 245 9.3
2006-12-22 07:55:23 51°13.782 2°52.202 249.5 14.9 244 9.2
2006-12-22 07:55:28 51°13.773 2°52.172 249.5 14.9 244 9.2
2006-12-22 07:55:33 51°13.764 2°52.143 249.4 14.9 243 9.3
2006-12-22 07:55:38 51°13.755 2°52.113 249 15 245 9.4
2006-12-22 07:55:43 51°13.745 2°52.083 248.8 15 243 9.3
2006-12-22 07:55:48 51°13.737 2°52.053 248.6 15 244 9.3
2006-12-22 07:55:53 51°13.727 2°52.024 248.9 15 243 9.4
2006-12-22 07:55:58 51°13.718 2°51.994 248.3 15 244 9.3
2006-12-22 07:56:03 51°13.708 2°51.965 248.5 15 242 9.4
2006-12-22 07:56:08 51°13.699 2°51.935 248.1 15 244 9.4
2006-12-22 07:56:13 51°13.689 2°51.906 248 15 242 9.3
2006-12-22 07:56:18 51°13.68 2°51.876 248.2 15 244 9.4
2006-12-22 07:56:23 51°13.671 2°51.847 248.2 14.9 243 9.5
2006-12-22 07:56:28 51°13.662 2°51.817 248.7 15 244 9.5
2006-12-22 07:56:33 51°13.652 2°51.788 248.6 15 244 9.5
2006-12-22 07:56:38 51°13.643 2°51.758 249.1 15 243 9.5
2006-12-22 07:56:43 51°13.634 2°51.728 249 15 245 9.5
2006-12-22 07:56:48 51°13.625 2°51.699 249.3 15 243 9.5
2006-12-22 07:56:53 51°13.616 2°51.669 248.9 14.9 245 9.6
2006-12-22 07:56:58 51°13.607 2°51.639 249.5 14.9 244 9.6
2006-12-22 07:57:03 51°13.597 2°51.609 249 15 243 9.6
2006-12-22 07:57:08 51°13.588 2°51.579 248.7 15 244 9.6
2006-12-22 07:57:13 51°13.579 2°51.55 248.9 15 242 9.6
2006-12-22 07:57:18 51°13.569 2°51.521 247.8 15 243 9.6
2006-12-22 07:57:23 51°13.559 2°51.492 247.3 15 240 9.6
2006-12-22 07:57:28 51°13.548 2°51.463 246.2 15 241 9.6
2006-12-22 07:57:33 51°13.538 2°51.435 245.3 15 240 9.6
2006-12-22 07:57:38 51°13.527 2°51.406 244.5 15.1 239 9.6
2006-12-22 07:57:43 51°13.516 2°51.378 243.7 15 240 9.7
2006-12-22 07:57:48 51°13.505 2°51.35 243.7 15 238 9.7
2006-12-22 07:57:53 51°13.494 2°51.321 243.1 15.1 239 9.7
2006-12-22 07:57:58 51°13.483 2°51.293 243 15.1 238 9.7
2006-12-22 07:58:03 51°13.473 2°51.264 243.1 15.2 239 9.7
2006-12-22 07:58:08 51°13.462 2°51.235 243.4 15.2 239 9.7
2006-12-22 07:58:13 51°13.451 2°51.206 243.5 15 240 9.7
2006-12-22 07:58:18 51°13.44 2°51.178 243.9 15.2 238 9.8
2006-12-22 07:58:23 51°13.43 2°51.149 243.8 15.2 241 9.8
2006-12-22 07:58:28 51°13.419 2°51.12 244.5 15 238 9.8
2006-12-22 07:58:33 51°13.409 2°51.091 244.1 15.2 240 9.7
2006-12-22 07:58:38 51°13.398 2°51.062 243.5 15.2 240 9.7
2006-12-22 07:58:43 51°13.388 2°51.033 244.5 15.1 239 9.8
2006-12-22 07:58:48 51°13.377 2°51.004 243.9 15.2 240 9.8
2006-12-22 07:58:53 51°13.366 2°50.976 243.8 15.2 239 9.8
2006-12-22 07:58:58 51°13.356 2°50.946 243.8 15.1 241 9.8
2006-12-22 07:59:03 51°13.345 2°50.918 244.4 15.1 239 9.8
2006-12-22 07:59:08 51°13.335 2°50.888 244.1 15.3 240 9.8
2006-12-22 07:59:13 51°13.324 2°50.859 244.4 15.2 240 9.9
2006-12-22 07:59:18 51°13.314 2°50.83 244.9 15.2 240 9.8
2006-12-22 07:59:23 51°13.303 2°50.801 244.4 15.2 240 9.8
2006-12-22 07:59:28 51°13.292 2°50.772 244.8 15.2 239 10
2006-12-22 07:59:33 51°13.281 2°50.744 244.2 15.1 239 9.9
2006-12-22 07:59:38 51°13.27 2°50.715 243.3 15.2 238 9.9
2006-12-22 07:59:43 51°13.259 2°50.687 242.5 15.2 238 9.9
2006-12-22 07:59:48 51°13.248 2°50.658 242.4 15.2 237 9.9
2006-12-22 07:59:53 51°13.236 2°50.63 241.9 15.2 237 9.9
2006-12-22 07:59:58 51°13.225 2°50.602 241.6 15.2 238 9.9
2006-12-22 08:00:03 51°13.214 2°50.574 241.4 15.2 238 10
2006-12-22 08:00:08 51°13.203 2°50.545 241.7 15.2 239 10
2006-12-22 08:00:13 51°13.192 2°50.516 242.4 15.1 238 10
2006-12-22 08:00:18 51°13.181 2°50.488 242.5 15.2 238 10
2006-12-22 08:00:23 51°13.17 2°50.459 242.6 15.2 238 10
2006-12-22 08:00:28 51°13.159 2°50.431 242.6 15.2 238 10
2006-12-22 08:00:33 51°13.147 2°50.403 242.4 15.2 238 10
2006-12-22 08:00:38 51°13.136 2°50.374 242.2 15.2 237 10
2006-12-22 08:00:43 51°13.125 2°50.346 241.8 15.2 238 10
2006-12-22 08:00:48 51°13.114 2°50.318 241.8 15.2 238 10
2006-12-22 08:00:53 51°13.103 2°50.289 242 15.1 238 10.1
2006-12-22 08:00:58 51°13.092 2°50.261 242 15.1 239 10.1
2006-12-22 08:01:03 51°13.081 2°50.233 242.4 15 238 10.1
2006-12-22 08:01:08 51°13.069 2°50.205 242.6 15.1 238 10.1
2006-12-22 08:01:13 51°13.058 2°50.176 242.2 15.1 238 10.1
2006-12-22 08:01:18 51°13.047 2°50.148 242.2 15.1 238 10.1
2006-12-22 08:01:23 51°13.036 2°50.12 241.9 15 238 10.1
2006-12-22 08:01:28 51°13.025 2°50.092 241.8 15 237 10.1
2006-12-22 08:01:33 51°13.014 2°50.064 242.1 15.1 239 10.2
2006-12-22 08:01:38 51°13.003 2°50.036 242.4 15 237 10.2
2006-12-22 08:01:43 51°12.992 2°50.008 242 15.1 238 10.2
2006-12-22 08:01:48 51°12.981 2°49.98 241.7 15.1 238 10.2
2006-12-22 08:01:53 51°12.97 2°49.951 242 15.1 238 10.2
2006-12-22 08:01:58 51°12.959 2°49.923 242 15 238 10.2
2006-12-22 08:02:03 51°12.948 2°49.895 242.3 15.1 238 10.2
2006-12-22 08:02:08 51°12.936 2°49.866 242.1 15.1 238 10.3
2006-12-22 08:02:13 51°12.925 2°49.838 242.2 15.1 238 10.3
2006-12-22 08:02:18 51°12.914 2°49.81 242.1 15.1 238 10.2
2006-12-22 08:02:23 51°12.903 2°49.781 242.1 15.1 238 10.2
2006-12-22 08:02:28 51°12.892 2°49.753 242.2 15.1 238 10.3
2006-12-22 08:02:33 51°12.881 2°49.725 242.4 15 238 10.4
2006-12-22 08:02:38 51°12.87 2°49.697 242.6 15.1 238 10.3
2006-12-22 08:02:43 51°12.859 2°49.668 242.4 15.1 238 10.3
2006-12-22 08:02:48 51°12.848 2°49.64 242.4 15.1 239 10.3
2006-12-22 08:02:53 51°12.836 2°49.612 242.5 15.2 237 10.3
2006-12-22 08:02:58 51°12.825 2°49.583 242.1 15.3 238 10.3
2006-12-22 08:03:03 51°12.814 2°49.555 241.9 15.3 237 10.4
2006-12-22 08:03:07 51°12.805 2°49.532 241.8 15.2 238 10.4
2006-12-22 08:03:13 51°12.791 2°49.498 241.8 15.2 237 10.4
2006-12-22 08:03:18 51°12.78 2°49.47 241.6 15.3 237 10.4
2006-12-22 08:03:23 51°12.768 2°49.441 241.2 15.4 237 10.4
2006-12-22 08:03:28 51°12.756 2°49.413 240.9 15.4 237 10.4
2006-12-22 08:03:33 51°12.745 2°49.384 241.3 15.4 237 10.5
2006-12-22 08:03:38 51°12.733 2°49.355 241.6 15.5 238 10.5
2006-12-22 08:03:43 51°12.722 2°49.327 241.8 15.3 238 10.5
2006-12-22 08:03:48 51°12.711 2°49.298 242.2 15.4 239 10.5
2006-12-22 08:03:53 51°12.699 2°49.269 242.7 15.4 238 10.4
2006-12-22 08:03:58 51°12.689 2°49.239 242.5 15.4 239 10.5
2006-12-22 08:04:03 51°12.677 2°49.211 243.1 15.4 237 10.5
2006-12-22 08:04:08 51°12.666 2°49.181 242.4 15.5 239 10.5
2006-12-22 08:04:13 51°12.654 2°49.152 242.4 15.5 238 10.5
2006-12-22 08:04:18 51°12.643 2°49.123 242.6 15.5 239 10.5
2006-12-22 08:04:23 51°12.632 2°49.094 242.4 15.5 238 10.5
2006-12-22 08:04:28 51°12.621 2°49.065 242.6 15.5 238 10.5
2006-12-22 08:04:33 51°12.609 2°49.036 242.5 15.5 238 10.6
2006-12-22 08:04:38 51°12.598 2°49.006 242.4 15.6 238 10.6
2006-12-22 08:04:43 51°12.586 2°48.977 242.4 15.6 238 10.6
2006-12-22 08:04:48 51°12.575 2°48.948 242.6 15.5 238 10.6
2006-12-22 08:04:53 51°12.563 2°48.919 242.6 15.6 238 10.6
2006-12-22 08:04:58 51°12.552 2°48.89 242.3 15.6 239 10.5
2006-12-22 08:05:03 51°12.541 2°48.861 242.3 15.5 238 10.6
2006-12-22 08:05:08 51°12.529 2°48.832 242.6 15.5 238 10.6
2006-12-22 08:05:13 51°12.518 2°48.803 242.3 15.5 238 10.6
2006-12-22 08:05:18 51°12.506 2°48.773 242.1 15.6 238 10.6
2006-12-22 08:05:23 51°12.495 2°48.745 242 15.5 237 10.6
2006-12-22 08:05:28 51°12.483 2°48.716 242.1 15.5 238 10.6
2006-12-22 08:05:33 51°12.472 2°48.687 241.9 15.5 237 10.7
2006-12-22 08:05:38 51°12.461 2°48.658 241.9 15.5 238 10.7
2006-12-22 08:05:43 51°12.449 2°48.629 242 15.5 237 10.7
2006-12-22 08:05:48 51°12.438 2°48.6 242 15.5 239 10.7
2006-12-22 08:05:53 51°12.426 2°48.571 242.3 15.4 238 10.6
2006-12-22 08:05:58 51°12.415 2°48.542 242.4 15.5 239 10.7
2006-12-22 08:06:03 51°12.404 2°48.512 242.6 15.5 239 10.7
2006-12-22 08:06:08 51°12.393 2°48.483 243.1 15.4 239 10.7
2006-12-22 08:06:13 51°12.382 2°48.454 243.5 15.3 239 10.7
2006-12-22 08:06:18 51°12.37 2°48.425 243.1 15.4 238 10.7
2006-12-22 08:06:23 51°12.359 2°48.396 242.4 15.5 239 10.7
2006-12-22 08:06:28 51°12.348 2°48.367 242.5 15.4 238 10.7
2006-12-22 08:06:33 51°12.336 2°48.338 242.9 15.4 238 10.7
2006-12-22 08:06:38 51°12.325 2°48.309 242.1 15.4 238 10.7
2006-12-22 08:06:43 51°12.314 2°48.28 242.4 15.4 238 10.7
2006-12-22 08:06:48 51°12.302 2°48.251 242.4 15.4 238 10.8
2006-12-22 08:06:53 51°12.291 2°48.223 242.1 15.4 238 10.7
2006-12-22 08:06:58 51°12.279 2°48.194 242.3 15.4 238 10.7
2006-12-22 08:07:03 51°12.268 2°48.165 242 15.4 238 10.7
2006-12-22 08:07:08 51°12.257 2°48.136 241.9 15.4 238 10.7
2006-12-22 08:07:13 51°12.245 2°48.108 242.1 15.4 238 10.8
2006-12-22 08:07:18 51°12.234 2°48.079 242.3 15.4 238 10.7
2006-12-22 08:07:23 51°12.223 2°48.05 242.4 15.4 238 10.7
2006-12-22 08:07:28 51°12.211 2°48.021 241.9 15.4 238 10.8
2006-12-22 08:07:33 51°12.2 2°47.992 242.3 15.4 238 10.8
2006-12-22 08:07:38 51°12.189 2°47.963 242.4 15.4 238 10.8
2006-12-22 08:07:43 51°12.177 2°47.934 242.3 15.5 238 10.7
2006-12-22 08:07:48 51°12.167 2°47.905 241.8 15.4 239 10.6
2006-12-22 08:07:53 51°12.155 2°47.876 242.4 15.4 238 10.8
2006-12-22 08:07:58 51°12.144 2°47.847 242.5 15.4 239 10.7
2006-12-22 08:08:03 51°12.133 2°47.818 242.5 15.4 239 10.7
2006-12-22 08:08:08 51°12.122 2°47.788 242.7 15.4 239 10.6
2006-12-22 08:08:13 51°12.111 2°47.76 243.1 15.3 239 10.6
2006-12-22 08:08:18 51°12.1 2°47.73 243.1 15.4 239 10.6
2006-12-22 08:08:23 51°12.089 2°47.701 243.1 15.5 239 10.6
2006-12-22 08:08:28 51°12.078 2°47.672 243.1 15.4 239 10.6
2006-12-22 08:08:33 51°12.067 2°47.643 243.4 15.4 239 10.6
2006-12-22 08:08:38 51°12.056 2°47.614 242.8 15.4 239 10.6
2006-12-22 08:08:43 51°12.045 2°47.585 243 15.4 239 10.6
2006-12-22 08:08:48 51°12.033 2°47.556 243 15.4 238 10.5
2006-12-22 08:08:53 51°12.022 2°47.527 242.3 15.5 239 10.5
2006-12-22 08:08:58 51°12.011 2°47.498 242.4 15.3 239 10.6
2006-12-22 08:09:03 51°12 2°47.469 242.6 15.4 238 10.6
2006-12-22 08:09:08 51°11.989 2°47.44 242.4 15.4 239 10.5
2006-12-22 08:09:13 51°11.978 2°47.411 242.4 15.4 239 10.4
2006-12-22 08:09:18 51°11.967 2°47.381 242.6 15.4 239 10.5
2006-12-22 08:09:23 51°11.956 2°47.352 242.8 15.3 239 10.5
2006-12-22 08:09:28 51°11.945 2°47.323 242.9 15.4 238 10.5
2006-12-22 08:09:33 51°11.934 2°47.294 242.8 15.4 240 10.5
2006-12-22 08:09:38 51°11.923 2°47.265 243.3 15.3 238 10.4
2006-12-22 08:09:43 51°11.911 2°47.236 242.9 15.5 239 10.4
2006-12-22 08:09:48 51°11.901 2°47.207 242.7 15.4 239 10.3
2006-12-22 08:09:53 51°11.89 2°47.178 243.2 15.3 239 10.3
2006-12-22 08:09:58 51°11.879 2°47.149 242.6 15.3 239 10.3
2006-12-22 08:10:03 51°11.868 2°47.12 242.5 15.3 240 10.3
2006-12-22 08:10:08 51°11.857 2°47.091 243.1 15.3 238 10.3
2006-12-22 08:10:13 51°11.846 2°47.062 242.7 15.4 239 10.2
2006-12-22 08:10:18 51°11.835 2°47.033 242.6 15.2 239 10.2
2006-12-22 08:10:23 51°11.824 2°47.005 242.9 15.1 239 10.2
2006-12-22 08:10:28 51°11.813 2°46.976 242.5 15.3 238 10.2
2006-12-22 08:10:33 51°11.802 2°46.947 241.9 15.3 239 10.1
2006-12-22 08:10:38 51°11.791 2°46.918 242.6 15.2 238 10
2006-12-22 08:10:43 51°11.78 2°46.889 242.4 15.2 240 10.1
2006-12-22 08:10:48 51°11.769 2°46.861 242.7 15.2 238 10.1
2006-12-22 08:10:53 51°11.758 2°46.832 242.4 15.2 240 10.1
2006-12-22 08:10:58 51°11.747 2°46.803 242.4 15.2 238 10.1
2006-12-22 08:11:03 51°11.737 2°46.774 242.5 15.2 239 10
2006-12-22 08:11:08 51°11.726 2°46.746 242.5 15.2 239 10
2006-12-22 08:11:13 51°11.715 2°46.717 242.6 15.2 239 10
2006-12-22 08:11:18 51°11.704 2°46.688 243 15.2 239 10
2006-12-22 08:11:23 51°11.693 2°46.66 242.6 15.1 239 9.9
2006-12-22 08:11:28 51°11.682 2°46.631 242.6 15.1 239 10
2006-12-22 08:11:33 51°11.671 2°46.603 242.4 15.1 238 9.9
2006-12-22 08:11:38 51°11.66 2°46.574 242.1 15.2 239 10
2006-12-22 08:11:43 51°11.649 2°46.545 242.2 15.1 239 9.9
2006-12-22 08:11:48 51°11.638 2°46.517 242.7 15.2 238 9.9
2006-12-22 08:11:53 51°11.628 2°46.488 242.4 15.2 240 9.9
2006-12-22 08:11:58 51°11.616 2°46.459 242.7 15.1 239 9.9
2006-12-22 08:12:03 51°11.606 2°46.431 242.6 15.1 239 9.9
2006-12-22 08:12:08 51°11.595 2°46.402 242.5 15.1 239 9.9
2006-12-22 08:12:13 51°11.584 2°46.374 242.4 15.2 239 9.8
2006-12-22 08:12:18 51°11.573 2°46.345 242.3 15.1 239 9.8
2006-12-22 08:12:23 51°11.562 2°46.317 242.4 15.1 238 9.8
2006-12-22 08:12:28 51°11.551 2°46.288 242.4 15.1 239 9.7
2006-12-22 08:12:33 51°11.54 2°46.26 242.5 15.1 239 9.7
2006-12-22 08:12:38 51°11.529 2°46.231 242.4 15.2 239 9.7
2006-12-22 08:12:43 51°11.519 2°46.202 242.6 15 240 9.6
2006-12-22 08:12:48 51°11.508 2°46.175 243.3 14.9 238 9.6
2006-12-22 08:12:53 51°11.497 2°46.146 242.5 15 239 9.6
2006-12-22 08:12:58 51°11.486 2°46.118 242.4 15.2 238 9.6
2006-12-22 08:13:03 51°11.475 2°46.089 242.2 15.1 239 9.4
2006-12-22 08:13:08 51°11.464 2°46.061 242.4 14.9 239 9.5
2006-12-22 08:13:13 51°11.454 2°46.032 242.5 14.9 241 9.4
2006-12-22 08:13:18 51°11.445 2°46.003 243.8 15 243 9.4
2006-12-22 08:13:23 51°11.436 2°45.973 246 15 244 9.3
2006-12-22 08:13:28 51°11.427 2°45.942 247.4 15 246 9.3
2006-12-22 08:13:33 51°11.419 2°45.912 249.4 15 246 9.3
2006-12-22 08:13:38 51°11.411 2°45.882 250.2 14.9 247 9.3
2006-12-22 08:13:43 51°11.403 2°45.852 251.3 15 247 9.3
2006-12-22 08:13:48 51°11.395 2°45.821 251.7 15 248 9.3
2006-12-22 08:13:53 51°11.388 2°45.79 252 15 248 9.4
2006-12-22 08:13:58 51°11.38 2°45.759 252.5 14.9 248 9.3
2006-12-22 08:14:03 51°11.372 2°45.729 252.4 15 247 9.4
2006-12-22 08:14:08 51°11.364 2°45.698 251.8 15 247 9.4
2006-12-22 08:14:13 51°11.356 2°45.667 251.8 15 247 9.4
2006-12-22 08:14:18 51°11.347 2°45.637 251.5 15 247 9.4
2006-12-22 08:14:23 51°11.339 2°45.606 251.1 15.1 246 9.4
2006-12-22 08:14:28 51°11.331 2°45.576 250.5 15 247 9.4
2006-12-22 08:14:33 51°11.322 2°45.546 250.6 15 245 9.3
2006-12-22 08:14:38 51°11.313 2°45.515 250.1 15.1 247 9.3
2006-12-22 08:14:43 51°11.305 2°45.485 250.4 15.1 246 9.3
2006-12-22 08:14:48 51°11.296 2°45.454 250.7 15 246 9.3
2006-12-22 08:14:53 51°11.288 2°45.424 250.6 15 246 9.3
2006-12-22 08:14:58 51°11.28 2°45.394 250.7 15 247 9.3
2006-12-22 08:15:03 51°11.272 2°45.363 250.8 15.1 247 9.3
2006-12-22 08:15:08 51°11.264 2°45.332 251.1 15.1 248 9.2
2006-12-22 08:15:13 51°11.257 2°45.301 251.8 15 250 9.3
2006-12-22 08:15:18 51°11.25 2°45.27 253.4 15 250 9.2
2006-12-22 08:15:23 51°11.243 2°45.239 254.3 15 252 9.3
2006-12-22 08:15:28 51°11.237 2°45.207 255.5 15.1 252 9.3
2006-12-22 08:15:33 51°11.23 2°45.175 256.3 15.1 253 9.3
2006-12-22 08:15:38 51°11.224 2°45.144 257.1 15 253 9.4
2006-12-22 08:15:43 51°11.218 2°45.112 257.9 15 253 9.4
2006-12-22 08:15:48 51°11.212 2°45.08 257.8 15 253 9.4
2006-12-22 08:15:53 51°11.206 2°45.049 257.9 15.1 253 9.4
2006-12-22 08:15:58 51°11.199 2°45.017 257.7 15.1 253 9.4
2006-12-22 08:16:03 51°11.193 2°44.985 257.5 15.1 252 9.5
2006-12-22 08:16:08 51°11.187 2°44.954 257 15.1 252 9.5
2006-12-22 08:16:13 51°11.18 2°44.922 256.7 15.1 252 9.5
2006-12-22 08:16:18 51°11.174 2°44.89 256.5 15.1 252 9.5
2006-12-22 08:16:23 51°11.167 2°44.858 256.5 15.1 253 9.5
2006-12-22 08:16:28 51°11.161 2°44.826 256.9 15.1 253 9.6
2006-12-22 08:16:33 51°11.155 2°44.794 257.6 15.1 254 9.6
2006-12-22 08:16:38 51°11.15 2°44.762 258.1 15.1 255 9.5
2006-12-22 08:16:43 51°11.144 2°44.73 259.1 15.1 255 9.6
2006-12-22 08:16:48 51°11.139 2°44.698 259.7 15.1 255 9.5
2006-12-22 08:16:53 51°11.134 2°44.665 259.8 15.1 255 9.6
2006-12-22 08:16:58 51°11.128 2°44.633 260.2 15.1 255 9.6
2006-12-22 08:17:03 51°11.123 2°44.601 260.3 15.1 255 9.6
2006-12-22 08:17:08 51°11.118 2°44.569 260.4 15.1 255 9.7
2006-12-22 08:17:13 51°11.112 2°44.536 259.9 15.1 255 9.7
2006-12-22 08:17:18 51°11.107 2°44.504 259.9 15.1 255 9.7
2006-12-22 08:17:23 51°11.102 2°44.472 259.8 15.1 255 9.8
2006-12-22 08:17:28 51°11.096 2°44.44 259.8 15.1 255 9.8
2006-12-22 08:17:33 51°11.09 2°44.407 259.4 15.2 254 9.7
2006-12-22 08:17:38 51°11.085 2°44.375 259.2 15.2 255 9.8
2006-12-22 08:17:43 51°11.079 2°44.343 259.1 15.2 254 9.8
2006-12-22 08:17:48 51°11.073 2°44.311 258.9 15.2 255 9.8
2006-12-22 08:17:53 51°11.068 2°44.279 259.1 15.1 255 9.8
2006-12-22 08:17:58 51°11.062 2°44.247 259.3 15.1 254 9.8
2006-12-22 08:18:03 51°11.056 2°44.214 259.3 15.1 255 9.9
2006-12-22 08:18:08 51°11.051 2°44.182 259 15.1 254 9.9
2006-12-22 08:18:13 51°11.045 2°44.15 259.2 15.2 255 9.9
2006-12-22 08:18:18 51°11.04 2°44.117 259.1 15.2 254 9.9
2006-12-22 08:18:23 51°11.034 2°44.085 259.3 15.1 255 9.9
2006-12-22 08:18:28 51°11.028 2°44.053 259.5 15.2 254 9.9
2006-12-22 08:18:33 51°11.023 2°44.02 259.2 15.2 256 10
2006-12-22 08:18:38 51°11.018 2°43.988 259.8 15.1 255 10
2006-12-22 08:18:43 51°11.013 2°43.956 260.2 15.1 256 10
2006-12-22 08:18:48 51°11.007 2°43.923 260.4 15.2 256 10
2006-12-22 08:18:53 51°11.002 2°43.891 260.4 15.1 256 10.1
2006-12-22 08:18:58 51°10.997 2°43.858 260.5 15.1 256 10.1
2006-12-22 08:19:03 51°10.992 2°43.826 260.4 15.2 256 10.1
2006-12-22 08:19:08 51°10.987 2°43.793 260.3 15.2 256 10.1
2006-12-22 08:19:13 51°10.982 2°43.761 260.5 15.1 256 10.1
2006-12-22 08:19:18 51°10.976 2°43.729 260.5 15.2 255 10.1
2006-12-22 08:19:23 51°10.971 2°43.696 260.3 15.1 256 10.1
2006-12-22 08:19:28 51°10.966 2°43.664 260.5 15.2 255 10.2
2006-12-22 08:19:33 51°10.961 2°43.631 260.3 15.1 257 10.1
2006-12-22 08:19:38 51°10.956 2°43.599 260.7 15.2 255 10.1
2006-12-22 08:19:43 51°10.951 2°43.566 260.7 15.2 257 10.2
2006-12-22 08:19:48 51°10.946 2°43.534 261.2 15.1 255 10.2
2006-12-22 08:19:53 51°10.941 2°43.502 260.6 15.1 256 10.2
2006-12-22 08:19:58 51°10.935 2°43.469 260.5 15.2 255 10.2
2006-12-22 08:20:03 51°10.93 2°43.437 260.2 15.2 256 10.3
2006-12-22 08:20:08 51°10.924 2°43.405 260.4 15.2 255 10.3
2006-12-22 08:20:13 51°10.919 2°43.372 260.1 15.1 256 10.3
2006-12-22 08:20:18 51°10.914 2°43.34 260.3 15.2 256 10.3
2006-12-22 08:20:23 51°10.909 2°43.307 260.4 15.2 256 10.3
2006-12-22 08:20:28 51°10.904 2°43.275 260.8 15.2 256 10.3
2006-12-22 08:20:33 51°10.899 2°43.242 260.7 15.2 256 10.3
2006-12-22 08:20:38 51°10.894 2°43.209 260.9 15.2 256 10.4
2006-12-22 08:20:43 51°10.889 2°43.177 260.6 15.2 256 10.4
2006-12-22 08:20:48 51°10.883 2°43.145 260.3 15.2 256 10.4
2006-12-22 08:20:53 51°10.878 2°43.112 260.4 15.2 256 10.4
2006-12-22 08:20:58 51°10.873 2°43.08 260.5 15.1 256 10.4
2006-12-22 08:21:03 51°10.868 2°43.047 260.5 15.2 255 10.5
2006-12-22 08:21:08 51°10.863 2°43.015 260.2 15.2 256 10.5
2006-12-22 08:21:13 51°10.857 2°42.982 260.2 15.2 255 10.4
2006-12-22 08:21:18 51°10.852 2°42.95 260.1 15.1 256 10.5
2006-12-22 08:21:23 51°10.847 2°42.918 260.2 15.1 256 10.5
2006-12-22 08:21:28 51°10.841 2°42.885 260.1 15.2 255 10.4
2006-12-22 08:21:33 51°10.836 2°42.853 259.9 15.2 256 10.5
2006-12-22 08:21:38 51°10.831 2°42.821 259.9 15.1 256 10.5
2006-12-22 08:21:43 51°10.826 2°42.788 260.1 15.2 256 10.6
2006-12-22 08:21:48 51°10.821 2°42.755 260.1 15.2 256 10.6
2006-12-22 08:21:53 51°10.816 2°42.723 260.5 15.2 256 10.6
2006-12-22 08:21:58 51°10.811 2°42.69 260.5 15.2 256 10.7
2006-12-22 08:22:03 51°10.806 2°42.658 260.5 15.1 256 10.6
2006-12-22 08:22:08 51°10.801 2°42.625 260.5 15.1 256 10.7
2006-12-22 08:22:13 51°10.796 2°42.593 260.5 15.2 256 10.6
2006-12-22 08:22:18 51°10.791 2°42.56 260.4 15.2 256 10.6
2006-12-22 08:22:23 51°10.785 2°42.528 260.7 15.2 256 10.7
2006-12-22 08:22:28 51°10.78 2°42.495 260.4 15.2 256 10.7
2006-12-22 08:22:33 51°10.775 2°42.462 260.3 15.2 256 10.7
2006-12-22 08:22:38 51°10.77 2°42.43 260.3 15.2 256 10.7
2006-12-22 08:22:43 51°10.765 2°42.397 260.5 15.2 256 10.7
2006-12-22 08:22:48 51°10.76 2°42.365 260.5 15.2 256 10.7
2006-12-22 08:22:53 51°10.755 2°42.332 260.5 15.2 256 10.7
2006-12-22 08:22:58 51°10.75 2°42.3 260.5 15.2 256 10.7
2006-12-22 08:23:03 51°10.745 2°42.267 260.3 15.2 256 10.8
2006-12-22 08:23:08 51°10.739 2°42.235 260 15.2 255 10.7
2006-12-22 08:23:13 51°10.734 2°42.203 259.6 15.2 256 10.7
2006-12-22 08:23:18 51°10.729 2°42.17 259.7 15.2 256 10.8
2006-12-22 08:23:23 51°10.724 2°42.138 259.9 15.2 256 10.8
2006-12-22 08:23:28 51°10.719 2°42.105 260 15.2 256 10.9
2006-12-22 08:23:33 51°10.714 2°42.072 260.2 15.2 256 10.8
2006-12-22 08:23:38 51°10.709 2°42.04 260.3 15.2 256 10.8
2006-12-22 08:23:43 51°10.704 2°42.007 260.2 15.2 256 10.8
2006-12-22 08:23:48 51°10.699 2°41.975 260.2 15.1 256 10.8
2006-12-22 08:23:53 51°10.694 2°41.943 260.3 15.1 256 10.9
2006-12-22 08:23:58 51°10.689 2°41.91 260.1 15.1 256 10.9
2006-12-22 08:24:03 51°10.684 2°41.878 260.2 15.2 257 10.9
2006-12-22 08:24:08 51°10.679 2°41.845 260.3 15.2 256 10.9
2006-12-22 08:24:13 51°10.674 2°41.813 260.4 15.1 257 10.9
2006-12-22 08:24:18 51°10.669 2°41.78 260.7 15.2 256 10.9
2006-12-22 08:24:23 51°10.664 2°41.748 260.6 15.2 256 10.9
2006-12-22 08:24:28 51°10.659 2°41.715 260.2 15.2 256 11
2006-12-22 08:24:33 51°10.653 2°41.683 260.3 15.2 256 10.9
2006-12-22 08:24:38 51°10.648 2°41.65 260.2 15.2 256 11
2006-12-22 08:24:43 51°10.643 2°41.618 259.8 15.2 255 11
2006-12-22 08:24:48 51°10.637 2°41.586 259.8 15.2 255 11
2006-12-22 08:24:53 51°10.632 2°41.553 259.6 15.1 256 11
2006-12-22 08:24:58 51°10.627 2°41.521 259.5 15.1 256 11
2006-12-22 08:25:03 51°10.622 2°41.488 259.8 15.2 256 11
2006-12-22 08:25:08 51°10.617 2°41.456 259.8 15.2 256 11
2006-12-22 08:25:13 51°10.611 2°41.423 259.8 15.2 255 11
2006-12-22 08:25:18 51°10.606 2°41.391 259.7 15.2 256 11
2006-12-22 08:25:23 51°10.601 2°41.359 259.5 15.1 255 11.1
2006-12-22 08:25:28 51°10.596 2°41.326 259.3 15.1 257 11.1
2006-12-22 08:25:33 51°10.591 2°41.294 259.8 15.2 256 11.2
2006-12-22 08:25:38 51°10.586 2°41.261 259.9 15.2 257 11.1
2006-12-22 08:25:43 51°10.581 2°41.229 260.5 15.2 256 11.1
2006-12-22 08:25:48 51°10.576 2°41.196 260.5 15.2 257 11.1
2006-12-22 08:25:53 51°10.571 2°41.163 260.6 15.1 257 11.1
2006-12-22 08:25:58 51°10.567 2°41.131 260.8 15.1 257 11.2
2006-12-22 08:26:03 51°10.562 2°41.098 261 15.1 256 11.2
2006-12-22 08:26:08 51°10.557 2°41.066 260.6 15.1 257 11.2
2006-12-22 08:26:13 51°10.552 2°41.033 260.5 15.2 257 11.2
2006-12-22 08:26:18 51°10.547 2°41.001 260.5 15.2 257 11.2
2006-12-22 08:26:23 51°10.542 2°40.968 260.6 15.2 257 11.2
2006-12-22 08:26:28 51°10.538 2°40.935 260.9 15.1 257 11.2
2006-12-22 08:26:33 51°10.533 2°40.903 260.9 15.2 257 11.3
2006-12-22 08:26:38 51°10.528 2°40.87 260.8 15.1 257 11.3
2006-12-22 08:26:43 51°10.523 2°40.838 260.9 15.2 257 11.2
2006-12-22 08:26:48 51°10.518 2°40.805 261.1 15.2 256 11.2
2006-12-22 08:26:53 51°10.513 2°40.772 260.5 15.2 257 11.4
2006-12-22 08:26:58 51°10.509 2°40.74 260.5 15.2 256 11.4
2006-12-22 08:27:03 51°10.503 2°40.707 260.5 15.2 256 11.4
2006-12-22 08:27:08 51°10.498 2°40.675 260.2 15.2 256 11.4
2006-12-22 08:27:13 51°10.493 2°40.642 260.3 15.2 257 11.4
2006-12-22 08:27:18 51°10.488 2°40.61 260.2 15.2 256 11.5
2006-12-22 08:27:23 51°10.484 2°40.577 260.3 15.2 257 11.5
2006-12-22 08:27:28 51°10.479 2°40.544 260.3 15.2 256 11.5
2006-12-22 08:27:33 51°10.474 2°40.512 260.3 15.2 257 11.6
2006-12-22 08:27:38 51°10.469 2°40.479 260.4 15.2 256 11.6
2006-12-22 08:27:43 51°10.464 2°40.446 260.5 15.1 257 11.7
2006-12-22 08:27:48 51°10.459 2°40.414 260.3 15.2 256 11.6
2006-12-22 08:27:53 51°10.454 2°40.381 260.1 15.2 257 11.8
2006-12-22 08:27:58 51°10.449 2°40.349 260.1 15.2 257 11.7
2006-12-22 08:28:03 51°10.444 2°40.316 260.2 15.2 257 11.8
2006-12-22 08:28:08 51°10.439 2°40.283 260.5 15.2 256 11.9
2006-12-22 08:28:13 51°10.434 2°40.251 260.4 15.2 256 11.9
2006-12-22 08:28:18 51°10.429 2°40.218 260.3 15.2 256 12
2006-12-22 08:28:23 51°10.424 2°40.185 260.3 15.2 257 12
2006-12-22 08:28:28 51°10.419 2°40.152 260.2 15.2 257 12.1
2006-12-22 08:28:33 51°10.415 2°40.12 260.4 15.2 257 12.1
2006-12-22 08:28:38 51°10.41 2°40.087 260.6 15.3 257 12.1
2006-12-22 08:28:43 51°10.405 2°40.054 260.8 15.2 258 12.2
2006-12-22 08:28:48 51°10.401 2°40.021 261.1 15.2 257 12.2
2006-12-22 08:28:53 51°10.396 2°39.988 261.2 15.2 257 12.3
2006-12-22 08:28:58 51°10.392 2°39.956 261.2 15.2 258 12.3
2006-12-22 08:29:03 51°10.387 2°39.923 261.3 15.3 257 12.3
2006-12-22 08:29:08 51°10.382 2°39.89 261.2 15.2 257 12.3
2006-12-22 08:29:13 51°10.378 2°39.857 261.2 15.3 257 12.5
2006-12-22 08:29:18 51°10.373 2°39.824 261.2 15.3 257 12.5
2006-12-22 08:29:23 51°10.368 2°39.792 261.3 15.2 257 12.6
2006-12-22 08:29:28 51°10.364 2°39.759 261.2 15.2 257 12.7
2006-12-22 08:29:33 51°10.359 2°39.726 261 15.2 257 12.7
2006-12-22 08:29:38 51°10.354 2°39.693 261.1 15.3 257 12.8
2006-12-22 08:29:43 51°10.35 2°39.66 261 15.3 257 12.8
2006-12-22 08:29:48 51°10.345 2°39.627 261.1 15.2 257 12.8
2006-12-22 08:29:53 51°10.34 2°39.594 261.2 15.2 258 13
2006-12-22 08:29:58 51°10.335 2°39.561 261.3 15.3 257 13
2006-12-22 08:30:03 51°10.331 2°39.528 261.4 15.3 258 13.2
2006-12-22 08:30:08 51°10.326 2°39.496 261.5 15.3 257 13.2
2006-12-22 08:30:13 51°10.322 2°39.463 261.2 15.3 258 13.3
2006-12-22 08:30:18 51°10.317 2°39.43 261.4 15.3 257 13.4
2006-12-22 08:30:23 51°10.312 2°39.397 261.3 15.3 258 13.5
2006-12-22 08:30:28 51°10.308 2°39.364 261.4 15.3 257 13.6
2006-12-22 08:30:33 51°10.303 2°39.331 261.4 15.3 258 13.7
2006-12-22 08:30:38 51°10.298 2°39.298 261.6 15.4 257 13.8
2006-12-22 08:30:43 51°10.294 2°39.265 261.5 15.3 258 13.8
2006-12-22 08:30:48 51°10.289 2°39.232 261.4 15.3 257 13.7
2006-12-22 08:30:53 51°10.284 2°39.199 261.3 15.3 258 13.8
2006-12-22 08:30:58 51°10.279 2°39.166 261.3 15.3 257 14
2006-12-22 08:31:03 51°10.275 2°39.133 261.1 15.4 257 13.9
2006-12-22 08:31:08 51°10.27 2°39.1 260.8 15.4 257 13.9
2006-12-22 08:31:13 51°10.265 2°39.067 261 15.3 258 14.2
2006-12-22 08:31:18 51°10.26 2°39.034 261.2 15.3 257 14.1
2006-12-22 08:31:23 51°10.255 2°39.001 261.1 15.3 257 14.2
2006-12-22 08:31:28 51°10.251 2°38.968 261.1 15.3 257 14
2006-12-22 08:31:33 51°10.246 2°38.935 260.9 15.3 257 14.1
2006-12-22 08:31:38 51°10.241 2°38.902 260.9 15.3 257 14.2
2006-12-22 08:31:43 51°10.236 2°38.869 261.2 15.3 257 14.4
2006-12-22 08:31:48 51°10.231 2°38.836 261.2 15.3 257 14.2
2006-12-22 08:31:53 51°10.227 2°38.803 261.3 15.3 257 14.2
2006-12-22 08:31:58 51°10.222 2°38.77 261.3 15.3 258 14.2
2006-12-22 08:32:03 51°10.218 2°38.737 261.2 15.3 258 14.3
2006-12-22 08:32:08 51°10.213 2°38.704 261.5 15.4 257 14.6
2006-12-22 08:32:13 51°10.208 2°38.671 261.3 15.4 258 14.8
2006-12-22 08:32:18 51°10.204 2°38.638 261.4 15.3 257 14.5
2006-12-22 08:32:23 51°10.199 2°38.605 261.5 15.4 257 14.9
2006-12-22 08:32:28 51°10.195 2°38.572 261.3 15.4 258 14.3
2006-12-22 08:32:33 51°10.19 2°38.539 261.4 15.3 257 14.7
2006-12-22 08:32:38 51°10.185 2°38.506 261.5 15.4 257 14.5
2006-12-22 08:32:43 51°10.18 2°38.473 261.2 15.3 257 14.5
2006-12-22 08:32:48 51°10.175 2°38.44 261.2 15.4 257 15.1
2006-12-22 08:32:53 51°10.171 2°38.406 261 15.4 257 15.1
2006-12-22 08:32:58 51°10.166 2°38.373 261 15.3 258 15
2006-12-22 08:33:03 51°10.162 2°38.34 261.4 15.3 257 14.8
2006-12-22 08:33:08 51°10.157 2°38.307 261.5 15.3 257 14.6
2006-12-22 08:33:13 51°10.152 2°38.274 261.3 15.3 257 14.7
2006-12-22 08:33:18 51°10.147 2°38.241 261.1 15.4 257 15
2006-12-22 08:33:23 51°10.143 2°38.208 260.7 15.3 258 14.8
2006-12-22 08:33:28 51°10.138 2°38.175 261.5 15.4 257 15
2006-12-22 08:33:33 51°10.134 2°38.142 261.6 15.4 259 15.3
2006-12-22 08:33:38 51°10.129 2°38.109 262.4 15.4 259 15.7
2006-12-22 08:33:43 51°10.125 2°38.076 262.8 15.3 259 15.7
2006-12-22 08:33:48 51°10.122 2°38.043 263.2 15.3 259 15.4
2006-12-22 08:33:53 51°10.117 2°38.01 263.4 15.3 259 15.7
2006-12-22 08:33:58 51°10.113 2°37.976 263.4 15.3 259 15.2
2006-12-22 08:34:03 51°10.11 2°37.943 263.5 15.3 259 15.7
2006-12-22 08:34:08 51°10.105 2°37.91 263.6 15.3 259 15.9
2006-12-22 08:34:13 51°10.101 2°37.877 263.4 15.3 260 15.8
2006-12-22 08:34:18 51°10.097 2°37.844 263.5 15.3 259 15.9
2006-12-22 08:34:23 51°10.093 2°37.811 263.4 15.3 259 15.9
2006-12-22 08:34:28 51°10.089 2°37.778 263.3 15.2 259 16.1
2006-12-22 08:34:33 51°10.086 2°37.745 263.4 15.2 260 16.2
2006-12-22 08:34:38 51°10.082 2°37.712 263.8 15.2 259 16.2
2006-12-22 08:34:43 51°10.078 2°37.678 263.6 15.2 260 16.3
2006-12-22 08:34:48 51°10.074 2°37.645 263.9 15.2 259 16.3
2006-12-22 08:34:53 51°10.071 2°37.612 263.9 15.2 260 16.3
2006-12-22 08:34:58 51°10.067 2°37.579 263.9 15.2 259 16.4
2006-12-22 08:35:03 51°10.063 2°37.546 263.9 15.3 259 16.4
2006-12-22 08:35:08 51°10.059 2°37.513 263.4 15.3 259 16.4
2006-12-22 08:35:13 51°10.055 2°37.48 263.5 15.3 259 16.5
2006-12-22 08:35:18 51°10.051 2°37.446 263.2 15.3 260 16.5
2006-12-22 08:35:23 51°10.047 2°37.413 263.3 15.3 259 16.6
2006-12-22 08:35:28 51°10.043 2°37.38 263.5 15.3 259 16.7
2006-12-22 08:35:33 51°10.04 2°37.347 263.5 15.4 260 16.7
2006-12-22 08:35:38 51°10.035 2°37.313 263.5 15.4 259 16.6
2006-12-22 08:35:43 51°10.032 2°37.28 263 15.4 259 16.5
2006-12-22 08:35:48 51°10.027 2°37.247 263.2 15.4 259 16.6
2006-12-22 08:35:53 51°10.024 2°37.213 263.3 15.5 260 16.6
2006-12-22 08:35:58 51°10.02 2°37.179 263.4 15.5 259 16.5
2006-12-22 08:36:03 51°10.016 2°37.146 263.5 15.4 260 16.5
2006-12-22 08:36:08 51°10.012 2°37.113 263.6 15.4 259 16.7
2006-12-22 08:36:13 51°10.008 2°37.079 263.5 15.4 259 16.7
2006-12-22 08:36:18 51°10.004 2°37.046 263.4 15.4 260 16.6
2006-12-22 08:36:23 51°10 2°37.012 263.8 15.5 259 16.8
2006-12-22 08:36:28 51°9.996 2°36.978 263.9 15.5 260 16.6
2006-12-22 08:36:33 51°9.992 2°36.945 263.8 15.5 259 16.8
2006-12-22 08:36:38 51°9.989 2°36.911 263.9 15.4 260 16.7
2006-12-22 08:36:43 51°9.984 2°36.878 263.8 15.4 259 16.7
2006-12-22 08:36:48 51°9.981 2°36.844 263.4 15.4 260 16.6
2006-12-22 08:36:53 51°9.977 2°36.811 263.8 15.4 260 16.7
2006-12-22 08:36:58 51°9.974 2°36.777 264.2 15.4 261 16.7
2006-12-22 08:37:03 51°9.97 2°36.744 265 15.4 261 16.9
2006-12-22 08:37:08 51°9.967 2°36.71 265.4 15.4 261 17
2006-12-22 08:37:13 51°9.964 2°36.676 265.5 15.4 262 16.8
2006-12-22 08:37:18 51°9.961 2°36.643 265.6 15.4 262 16.8
2006-12-22 08:37:23 51°9.958 2°36.609 265.9 15.4 261 16.8
2006-12-22 08:37:28 51°9.954 2°36.576 265.8 15.3 261 16.7
2006-12-22 08:37:33 51°9.951 2°36.542 265.4 15.4 260 16.6
2006-12-22 08:37:38 51°9.948 2°36.509 264.9 15.4 262 16.7
2006-12-22 08:37:43 51°9.944 2°36.475 265.4 15.4 261 16.8
2006-12-22 08:37:48 51°9.941 2°36.442 265.4 15.3 262 16.9
2006-12-22 08:37:53 51°9.938 2°36.408 265.6 15.3 261 16.7
2006-12-22 08:37:58 51°9.935 2°36.375 265.6 15.3 262 16.7
2006-12-22 08:38:03 51°9.933 2°36.341 265.4 15.3 263 16.6
2006-12-22 08:38:08 51°9.931 2°36.308 267.3 15.3 267 16.6
2006-12-22 08:38:13 51°9.93 2°36.274 269.5 15.2 267 16.7
2006-12-22 08:38:18 51°9.93 2°36.241 271.4 15.2 269 16.8
2006-12-22 08:38:23 51°9.93 2°36.207 273 15.2 269 16.8
2006-12-22 08:38:28 51°9.93 2°36.174 274 15.1 273 16.9
2006-12-22 08:38:33 51°9.932 2°36.141 277.2 15 275 16.9
2006-12-22 08:38:38 51°9.935 2°36.108 279.9 15 278 17.1
2006-12-22 08:38:43 51°9.938 2°36.076 282.1 14.9 279 17
2006-12-22 08:38:48 51°9.944 2°36.044 285.2 14.7 286 17.1
2006-12-22 08:38:53 51°9.949 2°36.013 288.8 14.7 286 17.2
2006-12-22 08:38:58 51°9.956 2°35.983 292.5 14.6 290 17.2
2006-12-22 08:39:03 51°9.963 2°35.953 294.6 14.6 290 17.2
2006-12-22 08:39:08 51°9.971 2°35.923 296.6 14.6 292 17.1
2006-12-22 08:39:13 51°9.978 2°35.893 297.9 14.6 291 17.1
2006-12-22 08:39:18 51°9.986 2°35.863 298.4 14.6 293 16.8
2006-12-22 08:39:23 51°9.994 2°35.834 299 14.6 292 16.7
2006-12-22 08:39:28 51°10.002 2°35.804 299.2 14.6 293 16.4
2006-12-22 08:39:33 51°10.01 2°35.775 299.6 14.5 294 16.3
2006-12-22 08:39:38 51°10.018 2°35.745 300 14.5 294 15.8
2006-12-22 08:39:43 51°10.028 2°35.717 300.7 14.4 298 15.4
2006-12-22 08:39:48 51°10.037 2°35.69 303.6 14.4 299 15
2006-12-22 08:39:53 51°10.048 2°35.663 305.9 14.2 303 14.3
2006-12-22 08:39:58 51°10.059 2°35.638 307.7 14.1 305 13.6
2006-12-22 08:40:03 51°10.072 2°35.615 311.3 13.8 312 13.3
2006-12-22 08:40:08 51°10.085 2°35.593 315.8 13.7 314 11.9
2006-12-22 08:40:13 51°10.099 2°35.573 319.8 13.6 316 11.9
2006-12-22 08:40:18 51°10.113 2°35.554 323.1 13.4 321 10.9
2006-12-22 08:40:23 51°10.128 2°35.536 327.1 13.3 323 10.4
2006-12-22 08:40:28 51°10.143 2°35.52 329.5 13.2 326 10.3
2006-12-22 08:40:33 51°10.159 2°35.504 331.9 13.2 327 10.1
2006-12-22 08:40:38 51°10.175 2°35.491 333.8 13 334 10.1
2006-12-22 08:40:43 51°10.191 2°35.48 338.9 13 337 9.8
2006-12-22 08:40:48 51°10.209 2°35.471 343.2 13 344 10
2006-12-22 08:40:53 51°10.226 2°35.464 347.6 12.9 346 10.2
2006-12-22 08:40:58 51°10.244 2°35.459 351.9 12.9 350 10.4
2006-12-22 08:41:03 51°10.261 2°35.457 355.3 12.8 354 10.3
2006-12-22 08:41:08 51°10.279 2°35.454 359.3 12.8 356 10.5
2006-12-22 08:41:13 51°10.297 2°35.454 2 12.9 358 10.1
2006-12-22 08:41:18 51°10.314 2°35.454 4.3 12.9 -999 10.3
2006-12-22 08:41:23 51°10.332 2°35.454 5.8 12.8 1 10.2
2006-12-22 08:41:28 51°10.35 2°35.457 7.6 12.7 6 10.2
2006-12-22 08:41:33 51°10.367 2°35.462 10.6 12.7 9 10.3
2006-12-22 08:41:38 51°10.384 2°35.468 14.1 12.7 12 10.1
2006-12-22 08:41:43 51°10.401 2°35.475 16.6 12.6 16 10
2006-12-22 08:41:48 51°10.418 2°35.484 20.1 12.5 20 9.7
2006-12-22 08:41:53 51°10.434 2°35.495 24 12.5 22 9.7
2006-12-22 08:41:58 51°10.449 2°35.506 25.9 12.4 25 9.5
2006-12-22 08:42:03 51°10.464 2°35.52 29 12.3 30 9.3
2006-12-22 08:42:08 51°10.479 2°35.534 31.9 12.4 31 9.3
2006-12-22 08:42:13 51°10.493 2°35.549 35 12.4 33 9.5
2006-12-22 08:42:18 51°10.507 2°35.564 37 12.3 35 9.4
2006-12-22 08:42:23 51°10.521 2°35.58 38.5 12.4 35 9.4
2006-12-22 08:42:28 51°10.535 2°35.596 39.1 12.4 36 9.2
2006-12-22 08:42:33 51°10.549 2°35.612 40 12.4 36 9.3
2006-12-22 08:42:38 51°10.563 2°35.629 40.1 12.4 37 9.3
2006-12-22 08:42:43 51°10.577 2°35.645 40.5 12.4 36 9.4
2006-12-22 08:42:48 51°10.59 2°35.661 40.3 12.4 36 9.4
2006-12-22 08:42:53 51°10.604 2°35.677 40 12.4 36 9.3
2006-12-22 08:42:58 51°10.618 2°35.693 39.9 12.4 35 9
2006-12-22 08:43:03 51°10.632 2°35.709 39.6 12.5 36 9.1
2006-12-22 08:43:08 51°10.647 2°35.725 39.8 12.5 35 9.4
2006-12-22 08:43:13 51°10.661 2°35.741 39.9 12.5 36 9.3
2006-12-22 08:43:18 51°10.675 2°35.757 39.9 12.6 35 9.3
2006-12-22 08:43:23 51°10.689 2°35.773 39.7 12.6 36 9.6
2006-12-22 08:43:28 51°10.703 2°35.789 39.6 12.6 35 9.3
2006-12-22 08:43:33 51°10.717 2°35.805 39.5 12.5 35 9.2
2006-12-22 08:43:38 51°10.731 2°35.822 39.4 12.5 36 9.6
2006-12-22 08:43:43 51°10.746 2°35.838 39.9 12.5 36 9.8
2006-12-22 08:43:48 51°10.76 2°35.854 39.9 12.6 36 9.7
2006-12-22 08:43:53 51°10.774 2°35.87 40 12.6 36 9.8
2006-12-22 08:43:58 51°10.788 2°35.887 40.2 12.6 36 9.6
2006-12-22 08:44:03 51°10.802 2°35.904 40.2 12.7 37 9.9
2006-12-22 08:44:08 51°10.816 2°35.92 40.5 12.6 36 9.9
2006-12-22 08:44:13 51°10.83 2°35.936 40.5 12.6 36 9.5
2006-12-22 08:44:18 51°10.845 2°35.952 40.3 12.6 36 9.7
2006-12-22 08:44:23 51°10.859 2°35.969 40.1 12.6 36 9.9
2006-12-22 08:44:28 51°10.873 2°35.985 40.4 12.6 36 9.8
2006-12-22 08:44:33 51°10.887 2°36.002 40.4 12.6 36 9.7
2006-12-22 08:44:38 51°10.901 2°36.018 40.4 12.6 36 9.7
2006-12-22 08:44:43 51°10.915 2°36.034 40.3 12.6 36 9.9
2006-12-22 08:44:48 51°10.929 2°36.051 40.2 12.6 36 9.8
2006-12-22 08:44:53 51°10.943 2°36.067 40.4 12.5 36 9.9
2006-12-22 08:44:58 51°10.957 2°36.084 40.4 12.6 37 10.1
2006-12-22 08:45:03 51°10.971 2°36.1 40.6 12.6 37 10.2
2006-12-22 08:45:08 51°10.985 2°36.117 41 12.6 37 10.1
2006-12-22 08:45:13 51°10.999 2°36.134 41 12.6 37 10.2
2006-12-22 08:45:18 51°11.013 2°36.15 41.2 12.6 37 10.2
2006-12-22 08:45:23 51°11.027 2°36.168 41.3 12.6 37 10.2
2006-12-22 08:45:28 51°11.041 2°36.184 41.3 12.6 37 10.3
2006-12-22 08:45:33 51°11.055 2°36.201 41.2 12.6 37 10.3
2006-12-22 08:45:38 51°11.069 2°36.218 41.3 12.6 37 10.2
2006-12-22 08:45:43 51°11.083 2°36.234 41.3 12.6 37 10.2
2006-12-22 08:45:48 51°11.097 2°36.251 41.2 12.6 37 10.3
2006-12-22 08:45:53 51°11.111 2°36.267 41 12.6 36 10.2
2006-12-22 08:45:58 51°11.125 2°36.284 41 12.6 37 10.2
2006-12-22 08:46:03 51°11.139 2°36.3 40.7 12.6 36 10.2
2006-12-22 08:46:08 51°11.153 2°36.317 40.7 12.6 37 10.3
2006-12-22 08:46:13 51°11.167 2°36.333 40.9 12.6 36 10.2
2006-12-22 08:46:18 51°11.181 2°36.35 41.2 12.6 37 10.3
2006-12-22 08:46:23 51°11.195 2°36.367 41.2 12.6 37 10.3
2006-12-22 08:46:28 51°11.209 2°36.384 41.3 12.6 37 10.4
2006-12-22 08:46:33 51°11.223 2°36.4 41.6 12.6 37 10.3
2006-12-22 08:46:38 51°11.237 2°36.417 41.3 12.6 37 10.7
2006-12-22 08:46:43 51°11.25 2°36.434 41.2 12.6 37 10.6
2006-12-22 08:46:48 51°11.265 2°36.45 41.3 12.6 37 10.3
2006-12-22 08:46:53 51°11.279 2°36.467 41.2 12.6 36 10.5
2006-12-22 08:46:58 51°11.293 2°36.483 40.7 12.6 35 10.5
2006-12-22 08:47:03 51°11.307 2°36.498 40 12.6 34 10.4
2006-12-22 08:47:08 51°11.322 2°36.514 39.3 12.6 34 10.7
2006-12-22 08:47:13 51°11.336 2°36.529 38.9 12.6 34 10.6
2006-12-22 08:47:18 51°11.351 2°36.545 38.6 12.6 34 10.3
2006-12-22 08:47:23 51°11.365 2°36.561 38.6 12.6 34 10.7
2006-12-22 08:47:28 51°11.379 2°36.576 38.9 12.6 34 10.5
2006-12-22 08:47:33 51°11.394 2°36.592 39 12.5 34 10.5
2006-12-22 08:47:38 51°11.408 2°36.608 38.9 12.6 34 10.7
2006-12-22 08:47:43 51°11.423 2°36.623 38.7 12.6 35 10.7
2006-12-22 08:47:48 51°11.437 2°36.639 38.9 12.6 35 10.6
2006-12-22 08:47:53 51°11.451 2°36.655 39.2 12.6 34 10.5
2006-12-22 08:47:58 51°11.466 2°36.671 39.3 12.6 35 10.7
2006-12-22 08:48:03 51°11.48 2°36.687 39.2 12.6 35 10.8
2006-12-22 08:48:08 51°11.495 2°36.702 39.2 12.6 35 10.7
2006-12-22 08:48:13 51°11.509 2°36.718 39.3 12.6 35 10.7
2006-12-22 08:48:18 51°11.523 2°36.734 39.3 12.6 35 10.5
2006-12-22 08:48:23 51°11.538 2°36.75 39.4 12.5 35 10.8
2006-12-22 08:48:28 51°11.552 2°36.766 39.6 12.6 35 10.8
2006-12-22 08:48:33 51°11.566 2°36.782 39.6 12.6 35 10.7
2006-12-22 08:48:38 51°11.581 2°36.798 39.6 12.6 35 11
2006-12-22 08:48:43 51°11.595 2°36.813 39.3 12.6 35 10.8
2006-12-22 08:48:48 51°11.61 2°36.829 39.3 12.6 35 10.7
2006-12-22 08:48:53 51°11.624 2°36.845 39.4 12.6 35 10.9
2006-12-22 08:48:58 51°11.638 2°36.861 39.5 12.6 35 10.8
2006-12-22 08:49:03 51°11.652 2°36.877 39.5 12.6 34 10.8
2006-12-22 08:49:08 51°11.667 2°36.892 39.5 12.6 34 10.8
2006-12-22 08:49:13 51°11.681 2°36.908 39.2 12.6 35 10.9
2006-12-22 08:49:18 51°11.695 2°36.924 39.1 12.6 35 10.7
2006-12-22 08:49:23 51°11.71 2°36.94 39.3 12.6 35 10.9
2006-12-22 08:49:28 51°11.724 2°36.956 39.5 12.5 34 10.7
2006-12-22 08:49:33 51°11.739 2°36.971 39.5 12.6 34 11
2006-12-22 08:49:38 51°11.753 2°36.986 39.1 12.6 33 10.9
2006-12-22 08:49:43 51°11.768 2°37.001 38.2 12.6 33 10.7
2006-12-22 08:49:48 51°11.783 2°37.016 37.7 12.6 32 11
2006-12-22 08:49:53 51°11.797 2°37.03 37.2 12.6 32 10.6
2006-12-22 08:49:58 51°11.812 2°37.045 36.9 12.6 31 11
2006-12-22 08:50:03 51°11.827 2°37.06 36.8 12.6 32 10.7
2006-12-22 08:50:08 51°11.842 2°37.074 36.6 12.6 32 11
2006-12-22 08:50:13 51°11.857 2°37.089 36.6 12.6 32 10.9
2006-12-22 08:50:18 51°11.872 2°37.103 36.7 12.6 32 10.7
2006-12-22 08:50:23 51°11.887 2°37.118 36.7 12.6 32 10.8
2006-12-22 08:50:28 51°11.901 2°37.132 37 12.5 32 11
2006-12-22 08:50:33 51°11.916 2°37.147 37 12.6 32 10.8
2006-12-22 08:50:38 51°11.931 2°37.162 37 12.6 32 11
2006-12-22 08:50:43 51°11.946 2°37.177 37.3 12.5 32 10.9
2006-12-22 08:50:48 51°11.961 2°37.191 37.1 12.5 30 10.9
2006-12-22 08:50:53 51°11.976 2°37.205 36.2 12.5 30 11
2006-12-22 08:50:58 51°11.991 2°37.218 35.7 12.6 29 10.9
2006-12-22 08:51:03 51°12.006 2°37.232 35 12.6 29 10.7
2006-12-22 08:51:08 51°12.021 2°37.245 34.8 12.6 29 10.8
2006-12-22 08:51:13 51°12.036 2°37.259 34.6 12.5 30 10.8
2006-12-22 08:51:18 51°12.051 2°37.273 34.6 12.5 29 10.8
2006-12-22 08:51:23 51°12.067 2°37.287 34.8 12.6 30 10.5
2006-12-22 08:51:28 51°12.082 2°37.301 35 12.6 30 10.9
2006-12-22 08:51:33 51°12.097 2°37.314 35.3 12.5 30 10.9
2006-12-22 08:51:38 51°12.112 2°37.328 35.2 12.6 30 10.9
2006-12-22 08:51:43 51°12.127 2°37.342 35.2 12.6 30 10.5
2006-12-22 08:51:48 51°12.142 2°37.356 35.1 12.6 30 10.7
2006-12-22 08:51:53 51°12.157 2°37.37 35.3 12.6 31 10.9
2006-12-22 08:51:58 51°12.172 2°37.384 35.5 12.6 30 10.9
2006-12-22 08:52:03 51°12.187 2°37.398 35.6 12.6 30 11
2006-12-22 08:52:08 51°12.203 2°37.411 35.5 12.6 29 10.8
2006-12-22 08:52:13 51°12.218 2°37.425 35.3 12.6 30 10.8
2006-12-22 08:52:18 51°12.233 2°37.439 34.9 12.6 30 10.8
2006-12-22 08:52:23 51°12.248 2°37.452 34.9 12.5 30 10.6
2006-12-22 08:52:28 51°12.263 2°37.466 35 12.6 30 11.1
2006-12-22 08:52:33 51°12.278 2°37.48 35 12.6 30 10.9
2006-12-22 08:52:38 51°12.294 2°37.494 35.2 12.6 30 11
2006-12-22 08:52:43 51°12.309 2°37.508 35.4 12.5 30 11
2006-12-22 08:52:48 51°12.324 2°37.521 35.5 12.6 30 11
2006-12-22 08:52:53 51°12.339 2°37.535 35.2 12.5 29 10.8
2006-12-22 08:52:58 51°12.354 2°37.549 35.2 12.6 30 11.2
2006-12-22 08:53:03 51°12.369 2°37.562 35.2 12.6 29 11.1
2006-12-22 08:53:08 51°12.384 2°37.576 35 12.6 29 11.2
2006-12-22 08:53:13 51°12.4 2°37.589 34.9 12.6 29 11.1
2006-12-22 08:53:18 51°12.415 2°37.603 34.9 12.5 30 10.9
2006-12-22 08:53:23 51°12.43 2°37.617 35 12.6 30 11.3
2006-12-22 08:53:28 51°12.445 2°37.631 35.3 12.5 29 11.2
2006-12-22 08:53:33 51°12.461 2°37.644 35.2 12.6 30 11.2
2006-12-22 08:53:38 51°12.476 2°37.658 35.2 12.6 29 11.4
2006-12-22 08:53:43 51°12.491 2°37.671 35.2 12.5 29 11.4
2006-12-22 08:53:48 51°12.506 2°37.685 35 12.6 29 11.2
2006-12-22 08:53:53 51°12.521 2°37.699 34.8 12.6 30 11.5
2006-12-22 08:53:58 51°12.537 2°37.712 35 12.6 30 11.5
2006-12-22 08:54:03 51°12.552 2°37.726 35.4 12.6 30 11.5
2006-12-22 08:54:08 51°12.567 2°37.739 35.5 12.6 29 11.7
2006-12-22 08:54:13 51°12.582 2°37.753 35.2 12.6 29 11.8
2006-12-22 08:54:18 51°12.598 2°37.766 34.9 12.6 29 11.7
2006-12-22 08:54:23 51°12.613 2°37.78 34.9 12.6 29 11.5
2006-12-22 08:54:28 51°12.628 2°37.794 34.9 12.6 30 11.7
2006-12-22 08:54:33 51°12.643 2°37.808 35.3 12.6 30 11.8
2006-12-22 08:54:38 51°12.659 2°37.821 35.6 12.6 29 11.7
2006-12-22 08:54:43 51°12.674 2°37.835 35.4 12.6 30 11.9
2006-12-22 08:54:48 51°12.689 2°37.849 35.3 12.6 30 11.8
2006-12-22 08:54:53 51°12.705 2°37.862 35.5 12.6 29 11.9
2006-12-22 08:54:58 51°12.72 2°37.876 35.2 12.6 29 12.1
2006-12-22 08:55:03 51°12.735 2°37.89 35 12.6 29 12.1
2006-12-22 08:55:08 51°12.75 2°37.903 35 12.6 29 11.6
2006-12-22 08:55:13 51°12.766 2°37.917 34.9 12.6 29 11.9
2006-12-22 08:55:18 51°12.781 2°37.93 34.8 12.5 29 12
2006-12-22 08:55:23 51°12.796 2°37.943 34.8 12.6 28 12.2
2006-12-22 08:55:28 51°12.812 2°37.957 34.8 12.6 29 12
2006-12-22 08:55:33 51°12.827 2°37.97 34.9 12.6 29 12.3
2006-12-22 08:55:38 51°12.842 2°37.984 35.4 12.6 29 12.1
2006-12-22 08:55:43 51°12.857 2°37.998 35.5 12.6 29 12.4
2006-12-22 08:55:48 51°12.873 2°38.011 35.3 12.6 29 12.4
2006-12-22 08:55:53 51°12.888 2°38.025 35.2 12.6 29 12.3
2006-12-22 08:55:58 51°12.903 2°38.038 35.1 12.6 29 12.4
2006-12-22 08:56:03 51°12.918 2°38.052 35.2 12.6 29 12.5
2006-12-22 08:56:08 51°12.934 2°38.065 35.2 12.6 30 12.6
2006-12-22 08:56:13 51°12.949 2°38.079 35.5 12.6 29 12.7
2006-12-22 08:56:18 51°12.964 2°38.093 35.2 12.6 29 12.7
2006-12-22 08:56:23 51°12.98 2°38.106 35.1 12.6 28 12.7
2006-12-22 08:56:28 51°12.995 2°38.119 34.9 12.6 29 12.7
2006-12-22 08:56:33 51°13.01 2°38.133 34.8 12.7 29 12.8
2006-12-22 08:56:38 51°13.026 2°38.146 35 12.7 29 12.9
2006-12-22 08:56:43 51°13.041 2°38.16 35.1 12.7 29 12.9
2006-12-22 08:56:48 51°13.057 2°38.173 35 12.7 28 13.1
2006-12-22 08:56:53 51°13.072 2°38.187 34.8 12.7 29 13
2006-12-22 08:56:58 51°13.088 2°38.2 34.8 12.7 29 13
2006-12-22 08:57:03 51°13.103 2°38.213 34.8 12.7 28 13.1
2006-12-22 08:57:08 51°13.119 2°38.227 34.8 12.7 28 13
2006-12-22 08:57:13 51°13.134 2°38.24 34.8 12.8 29 13
2006-12-22 08:57:18 51°13.149 2°38.254 34.8 12.7 29 13.2
2006-12-22 08:57:23 51°13.165 2°38.267 34.9 12.7 29 13.2
2006-12-22 08:57:28 51°13.18 2°38.281 35 12.7 29 13.2
2006-12-22 08:57:33 51°13.196 2°38.294 35 12.7 29 13.2
2006-12-22 08:57:38 51°13.211 2°38.307 35 12.7 28 13.3
2006-12-22 08:57:43 51°13.227 2°38.321 34.9 12.7 29 13.3
2006-12-22 08:57:48 51°13.242 2°38.334 34.8 12.7 29 13.3
2006-12-22 08:57:53 51°13.257 2°38.348 35.1 12.7 29 13.2
2006-12-22 08:57:58 51°13.273 2°38.362 35.4 12.7 29 13.3
2006-12-22 08:58:03 51°13.288 2°38.375 35.3 12.6 29 13.4
2006-12-22 08:58:08 51°13.304 2°38.389 35.4 12.7 29 13.4
2006-12-22 08:58:13 51°13.319 2°38.402 35.3 12.6 29 13.3
2006-12-22 08:58:18 51°13.334 2°38.415 35 12.6 29 13.4
2006-12-22 08:58:23 51°13.35 2°38.429 34.9 12.7 29 13.6
2006-12-22 08:58:28 51°13.365 2°38.443 35 12.7 29 13.5
2006-12-22 08:58:33 51°13.381 2°38.456 35.1 12.7 29 13.4
2006-12-22 08:58:38 51°13.396 2°38.47 35.1 12.7 29 13.5
2006-12-22 08:58:43 51°13.411 2°38.483 35.4 12.6 29 13.6
2006-12-22 08:58:48 51°13.427 2°38.496 35.5 12.7 28 13.6
2006-12-22 08:58:53 51°13.443 2°38.509 35 12.7 26 13.6
2006-12-22 08:58:58 51°13.458 2°38.521 33.9 12.7 26 13.6